sensor_id;sensor_type;location;lat;lon;timestamp;pressure;altitude;pressure_sealevel;temperature
58102;BMP280;52034;51.926;6.320;2023-04-03T00:00:05;102902.63;;;3.99
58102;BMP280;52034;51.926;6.320;2023-04-03T00:01:07;102895.91;;;3.94
58102;BMP280;52034;51.926;6.320;2023-04-03T00:02:08;102901.13;;;3.98
58102;BMP280;52034;51.926;6.320;2023-04-03T00:03:09;102909.69;;;4.00
58102;BMP280;52034;51.926;6.320;2023-04-03T00:04:09;102899.25;;;3.93
58102;BMP280;52034;51.926;6.320;2023-04-03T00:05:10;102900.72;;;3.94
58102;BMP280;52034;51.926;6.320;2023-04-03T00:06:11;102896.81;;;3.89
58102;BMP280;52034;51.926;6.320;2023-04-03T00:07:12;102907.59;;;3.93
58102;BMP280;52034;51.926;6.320;2023-04-03T00:08:12;102896.63;;;3.87
58102;BMP280;52034;51.926;6.320;2023-04-03T00:09:13;102907.38;;;3.91
58102;BMP280;52034;51.926;6.320;2023-04-03T00:10:13;102905.16;;;3.89
58102;BMP280;52034;51.926;6.320;2023-04-03T00:11:15;102903.81;;;3.83
58102;BMP280;52034;51.926;6.320;2023-04-03T00:12:16;102906.59;;;3.83
58102;BMP280;52034;51.926;6.320;2023-04-03T00:13:16;102895.78;;;3.79
58102;BMP280;52034;51.926;6.320;2023-04-03T00:14:16;102906.38;;;3.81
58102;BMP280;52034;51.926;6.320;2023-04-03T00:15:17;102901.13;;;3.77
58102;BMP280;52034;51.926;6.320;2023-04-03T00:16:17;102905.22;;;3.76
58102;BMP280;52034;51.926;6.320;2023-04-03T00:17:18;102898.56;;;3.79
58102;BMP280;52034;51.926;6.320;2023-04-03T00:18:19;102924.34;;;3.80
58102;BMP280;52034;51.926;6.320;2023-04-03T00:19:19;102912.78;;;3.76
58102;BMP280;52034;51.926;6.320;2023-04-03T00:20:20;102917.28;;;3.79
58102;BMP280;52034;51.926;6.320;2023-04-03T00:21:21;102906.28;;;3.73
58102;BMP280;52034;51.926;6.320;2023-04-03T00:22:21;102916.31;;;3.76
58102;BMP280;52034;51.926;6.320;2023-04-03T00:23:21;102912.06;;;3.75
58102;BMP280;52034;51.926;6.320;2023-04-03T00:24:23;102912.38;;;3.72
58102;BMP280;52034;51.926;6.320;2023-04-03T00:25:24;102914.63;;;3.73
58102;BMP280;52034;51.926;6.320;2023-04-03T00:26:25;102919.66;;;3.75
58102;BMP280;52034;51.926;6.320;2023-04-03T00:27:25;102922.78;;;3.71
58102;BMP280;52034;51.926;6.320;2023-04-03T00:28:26;102915.25;;;3.79
58102;BMP280;52034;51.926;6.320;2023-04-03T00:29:26;102924.13;;;3.78
58102;BMP280;52034;51.926;6.320;2023-04-03T00:30:27;102921.69;;;3.74
58102;BMP280;52034;51.926;6.320;2023-04-03T00:31:27;102922.78;;;3.71
58102;BMP280;52034;51.926;6.320;2023-04-03T00:32:28;102924.03;;;3.70
58102;BMP280;52034;51.926;6.320;2023-04-03T00:33:28;102917.00;;;3.69
58102;BMP280;52034;51.926;6.320;2023-04-03T00:34:28;102919.72;;;3.62
58102;BMP280;52034;51.926;6.320;2023-04-03T00:35:29;102922.38;;;3.67
58102;BMP280;52034;51.926;6.320;2023-04-03T00:36:29;102916.00;;;3.59
58102;BMP280;52034;51.926;6.320;2023-04-03T00:37:30;102920.25;;;3.60
58102;BMP280;52034;51.926;6.320;2023-04-03T00:38:31;102923.56;;;3.59
58102;BMP280;52034;51.926;6.320;2023-04-03T00:39:31;102923.38;;;3.57
58102;BMP280;52034;51.926;6.320;2023-04-03T00:40:37;102920.38;;;3.55
58102;BMP280;52034;51.926;6.320;2023-04-03T00:41:37;102927.97;;;3.54
58102;BMP280;52034;51.926;6.320;2023-04-03T00:42:39;102935.88;;;3.50
58102;BMP280;52034;51.926;6.320;2023-04-03T00:43:40;102928.50;;;3.53
58102;BMP280;52034;51.926;6.320;2023-04-03T00:45:47;102929.78;;;3.52
58102;BMP280;52034;51.926;6.320;2023-04-03T00:46:48;102926.94;;;3.44
58102;BMP280;52034;51.926;6.320;2023-04-03T00:47:48;102932.69;;;3.46
58102;BMP280;52034;51.926;6.320;2023-04-03T00:48:49;102927.16;;;3.46
58102;BMP280;52034;51.926;6.320;2023-04-03T00:49:50;102932.69;;;3.46
58102;BMP280;52034;51.926;6.320;2023-04-03T00:50:51;102938.47;;;3.48
58102;BMP280;52034;51.926;6.320;2023-04-03T00:51:52;102940.72;;;3.50
58102;BMP280;52034;51.926;6.320;2023-04-03T00:52:53;102932.31;;;3.42
58102;BMP280;52034;51.926;6.320;2023-04-03T00:54:03;102942.13;;;3.43
58102;BMP280;52034;51.926;6.320;2023-04-03T00:55:08;102932.09;;;3.40
58102;BMP280;52034;51.926;6.320;2023-04-03T00:56:11;102945.81;;;3.46
58102;BMP280;52034;51.926;6.320;2023-04-03T00:57:14;102927.69;;;3.45
58102;BMP280;52034;51.926;6.320;2023-04-03T00:58:18;102936.78;;;3.45
58102;BMP280;52034;51.926;6.320;2023-04-03T00:59:23;102937.88;;;3.42
58102;BMP280;52034;51.926;6.320;2023-04-03T01:00:26;102937.44;;;3.38
58102;BMP280;52034;51.926;6.320;2023-04-03T01:01:28;102936.47;;;3.36
58102;BMP280;52034;51.926;6.320;2023-04-03T01:02:29;102933.16;;;3.37
58102;BMP280;52034;51.926;6.320;2023-04-03T01:03:29;102945.97;;;3.40
58102;BMP280;52034;51.926;6.320;2023-04-03T01:04:36;102935.75;;;3.35
58102;BMP280;52034;51.926;6.320;2023-04-03T01:05:37;102944.28;;;3.37
58102;BMP280;52034;51.926;6.320;2023-04-03T01:06:38;102936.72;;;3.25
58102;BMP280;52034;51.926;6.320;2023-04-03T01:07:42;102936.91;;;3.27
58102;BMP280;52034;51.926;6.320;2023-04-03T01:08:44;102942.28;;;3.25
58102;BMP280;52034;51.926;6.320;2023-04-03T01:09:47;102940.03;;;3.23
58102;BMP280;52034;51.926;6.320;2023-04-03T01:10:48;102941.53;;;3.24
58102;BMP280;52034;51.926;6.320;2023-04-03T01:11:48;102926.09;;;3.16
58102;BMP280;52034;51.926;6.320;2023-04-03T01:12:50;102945.81;;;3.25
58102;BMP280;52034;51.926;6.320;2023-04-03T01:13:50;102944.31;;;3.24
58102;BMP280;52034;51.926;6.320;2023-04-03T01:14:57;102948.59;;;3.25
58102;BMP280;52034;51.926;6.320;2023-04-03T01:16:04;102949.53;;;3.28
58102;BMP280;52034;51.926;6.320;2023-04-03T01:17:37;102939.28;;;3.23
58102;BMP280;52034;51.926;6.320;2023-04-03T01:18:39;102942.81;;;3.23
58102;BMP280;52034;51.926;6.320;2023-04-03T01:19:47;102938.91;;;3.19
58102;BMP280;52034;51.926;6.320;2023-04-03T01:21:34;102945.91;;;3.20
58102;BMP280;52034;51.926;6.320;2023-04-03T01:22:59;102942.06;;;3.23
58102;BMP280;52034;51.926;6.320;2023-04-03T01:24:16;102945.19;;;3.19
58102;BMP280;52034;51.926;6.320;2023-04-03T01:25:18;102937.72;;;3.14
58102;BMP280;52034;51.926;6.320;2023-04-03T01:26:19;102950.31;;;3.15
58102;BMP280;52034;51.926;6.320;2023-04-03T01:27:20;102936.25;;;3.13
58102;BMP280;52034;51.926;6.320;2023-04-03T01:28:24;102940.41;;;3.07
58102;BMP280;52034;51.926;6.320;2023-04-03T01:29:25;102952.56;;;3.17
58102;BMP280;52034;51.926;6.320;2023-04-03T01:30:31;102953.09;;;3.15
58102;BMP280;52034;51.926;6.320;2023-04-03T01:31:44;102952.88;;;3.13
58102;BMP280;52034;51.926;6.320;2023-04-03T01:32:45;102952.13;;;3.13
58102;BMP280;52034;51.926;6.320;2023-04-03T01:33:46;102948.72;;;3.07
58102;BMP280;52034;51.926;6.320;2023-04-03T01:34:46;102949.69;;;3.09
58102;BMP280;52034;51.926;6.320;2023-04-03T01:35:47;102957.81;;;3.07
58102;BMP280;52034;51.926;6.320;2023-04-03T01:36:47;102953.75;;;3.08
58102;BMP280;52034;51.926;6.320;2023-04-03T01:37:48;102954.28;;;3.07
58102;BMP280;52034;51.926;6.320;2023-04-03T01:38:48;102953.00;;;3.08
58102;BMP280;52034;51.926;6.320;2023-04-03T01:39:49;102948.53;;;3.05
58102;BMP280;52034;51.926;6.320;2023-04-03T01:40:49;102949.91;;;2.98
58102;BMP280;52034;51.926;6.320;2023-04-03T01:41:50;102956.41;;;3.00
58102;BMP280;52034;51.926;6.320;2023-04-03T01:42:57;102958.97;;;2.98
58102;BMP280;52034;51.926;6.320;2023-04-03T01:43:57;102969.03;;;3.02
58102;BMP280;52034;51.926;6.320;2023-04-03T01:44:58;102962.72;;;3.01
58102;BMP280;52034;51.926;6.320;2023-04-03T01:45:59;102960.28;;;2.97
58102;BMP280;52034;51.926;6.320;2023-04-03T01:46:59;102954.50;;;2.95
58102;BMP280;52034;51.926;6.320;2023-04-03T01:48:02;102958.03;;;2.96
58102;BMP280;52034;51.926;6.320;2023-04-03T01:49:03;102962.81;;;2.95
58102;BMP280;52034;51.926;6.320;2023-04-03T01:50:03;102963.66;;;2.90
58102;BMP280;52034;51.926;6.320;2023-04-03T01:51:06;102955.16;;;2.88
58102;BMP280;52034;51.926;6.320;2023-04-03T01:52:06;102965.19;;;2.91
58102;BMP280;52034;51.926;6.320;2023-04-03T01:53:08;102947.38;;;2.87
58102;BMP280;52034;51.926;6.320;2023-04-03T01:54:08;102954.63;;;2.90
58102;BMP280;52034;51.926;6.320;2023-04-03T01:55:09;102951.44;;;2.86
58102;BMP280;52034;51.926;6.320;2023-04-03T01:56:09;102957.00;;;2.86
58102;BMP280;52034;51.926;6.320;2023-04-03T01:57:10;102962.97;;;2.90
58102;BMP280;52034;51.926;6.320;2023-04-03T01:58:10;102957.72;;;2.86
58102;BMP280;52034;51.926;6.320;2023-04-03T01:59:11;102955.47;;;2.85
58102;BMP280;52034;51.926;6.320;2023-04-03T02:00:12;102960.84;;;2.83
58102;BMP280;52034;51.926;6.320;2023-04-03T02:01:15;102965.09;;;2.84
58102;BMP280;52034;51.926;6.320;2023-04-03T02:02:16;102957.28;;;2.82
58102;BMP280;52034;51.926;6.320;2023-04-03T02:03:17;102957.41;;;2.77
58102;BMP280;52034;51.926;6.320;2023-04-03T02:04:17;102962.53;;;2.73
58102;BMP280;52034;51.926;6.320;2023-04-03T02:05:18;102963.25;;;2.73
58102;BMP280;52034;51.926;6.320;2023-04-03T02:06:18;102956.53;;;2.69
58102;BMP280;52034;51.926;6.320;2023-04-03T02:07:18;102964.78;;;2.74
58102;BMP280;52034;51.926;6.320;2023-04-03T02:08:19;102957.50;;;2.71
58102;BMP280;52034;51.926;6.320;2023-04-03T02:09:19;102970.84;;;2.73
58102;BMP280;52034;51.926;6.320;2023-04-03T02:10:20;102962.31;;;2.71
58102;BMP280;52034;51.926;6.320;2023-04-03T02:11:20;102966.03;;;2.73
58102;BMP280;52034;51.926;6.320;2023-04-03T02:12:20;102964.66;;;2.67
58102;BMP280;52034;51.926;6.320;2023-04-03T02:13:21;102968.50;;;2.64
58102;BMP280;52034;51.926;6.320;2023-04-03T02:14:21;102959.63;;;2.65
58102;BMP280;52034;51.926;6.320;2023-04-03T02:15:23;102973.41;;;2.71
58102;BMP280;52034;51.926;6.320;2023-04-03T02:16:24;102960.16;;;2.64
58102;BMP280;52034;51.926;6.320;2023-04-03T02:17:24;102974.25;;;2.66
58102;BMP280;52034;51.926;6.320;2023-04-03T02:18:24;102969.97;;;2.65
58102;BMP280;52034;51.926;6.320;2023-04-03T02:19:25;102973.72;;;2.67
58102;BMP280;52034;51.926;6.320;2023-04-03T02:20:25;102981.31;;;2.67
58102;BMP280;52034;51.926;6.320;2023-04-03T02:21:26;102987.38;;;2.65
58102;BMP280;52034;51.926;6.320;2023-04-03T02:22:27;102975.75;;;2.67
58102;BMP280;52034;51.926;6.320;2023-04-03T02:23:27;102969.03;;;2.62
58102;BMP280;52034;51.926;6.320;2023-04-03T02:24:28;102964.56;;;2.59
58102;BMP280;52034;51.926;6.320;2023-04-03T02:25:30;102974.25;;;2.66
58102;BMP280;52034;51.926;6.320;2023-04-03T02:26:31;102977.00;;;2.66
58102;BMP280;52034;51.926;6.320;2023-04-03T02:27:31;102976.69;;;2.69
58102;BMP280;52034;51.926;6.320;2023-04-03T02:28:32;102962.72;;;2.62
58102;BMP280;52034;51.926;6.320;2023-04-03T02:29:32;102965.09;;;2.58
58102;BMP280;52034;51.926;6.320;2023-04-03T02:30:33;102974.03;;;2.64
58102;BMP280;52034;51.926;6.320;2023-04-03T02:31:33;102965.31;;;2.60
58102;BMP280;52034;51.926;6.320;2023-04-03T02:32:35;102973.81;;;2.62
58102;BMP280;52034;51.926;6.320;2023-04-03T02:33:36;102951.72;;;2.43
58102;BMP280;52034;51.926;6.320;2023-04-03T02:34:38;102983.97;;;2.59
58102;BMP280;52034;51.926;6.320;2023-04-03T02:35:39;102974.91;;;2.59
58102;BMP280;52034;51.926;6.320;2023-04-03T02:36:40;102984.81;;;2.54
58102;BMP280;52034;51.926;6.320;2023-04-03T02:37:43;102986.63;;;2.52
58102;BMP280;52034;51.926;6.320;2023-04-03T02:38:43;102979.59;;;2.51
58102;BMP280;52034;51.926;6.320;2023-04-03T02:39:44;102977.53;;;2.51
58102;BMP280;52034;51.926;6.320;2023-04-03T02:40:44;102977.34;;;2.49
58102;BMP280;52034;51.926;6.320;2023-04-03T02:41:45;102981.31;;;2.54
58102;BMP280;52034;51.926;6.320;2023-04-03T02:42:51;102982.25;;;2.56
58102;BMP280;52034;51.926;6.320;2023-04-03T02:43:52;102976.50;;;2.54
58102;BMP280;52034;51.926;6.320;2023-04-03T02:44:53;102986.53;;;2.57
58102;BMP280;52034;51.926;6.320;2023-04-03T02:45:53;102977.78;;;2.53
58102;BMP280;52034;51.926;6.320;2023-04-03T02:46:53;102980.25;;;2.57
58102;BMP280;52034;51.926;6.320;2023-04-03T02:47:54;102980.53;;;2.53
58102;BMP280;52034;51.926;6.320;2023-04-03T02:48:54;102986.53;;;2.57
58102;BMP280;52034;51.926;6.320;2023-04-03T02:49:55;102981.50;;;2.56
58102;BMP280;52034;51.926;6.320;2023-04-03T02:50:55;102980.78;;;2.55
58102;BMP280;52034;51.926;6.320;2023-04-03T02:51:56;102983.00;;;2.57
58102;BMP280;52034;51.926;6.320;2023-04-03T02:52:56;102978.53;;;2.54
58102;BMP280;52034;51.926;6.320;2023-04-03T02:53:57;102978.53;;;2.54
58102;BMP280;52034;51.926;6.320;2023-04-03T02:55:01;102981.31;;;2.54
58102;BMP280;52034;51.926;6.320;2023-04-03T02:56:01;102978.00;;;2.55
58102;BMP280;52034;51.926;6.320;2023-04-03T02:57:02;102969.78;;;2.50
58102;BMP280;52034;51.926;6.320;2023-04-03T02:58:02;102975.75;;;2.54
58102;BMP280;52034;51.926;6.320;2023-04-03T02:59:04;102975.53;;;2.52
58102;BMP280;52034;51.926;6.320;2023-04-03T03:00:06;102976.28;;;2.52
58102;BMP280;52034;51.926;6.320;2023-04-03T03:01:07;102977.00;;;2.53
58102;BMP280;52034;51.926;6.320;2023-04-03T03:02:08;102981.06;;;2.52
58102;BMP280;52034;51.926;6.320;2023-04-03T03:03:09;102983.84;;;2.52
58102;BMP280;52034;51.926;6.320;2023-04-03T03:04:09;102983.66;;;2.50
58102;BMP280;52034;51.926;6.320;2023-04-03T03:05:09;102986.63;;;2.52
58102;BMP280;52034;51.926;6.320;2023-04-03T03:06:13;102980.13;;;2.49
58102;BMP280;52034;51.926;6.320;2023-04-03T03:07:14;102975.63;;;2.46
58102;BMP280;52034;51.926;6.320;2023-04-03T03:08:15;102971.75;;;2.36
58102;BMP280;52034;51.926;6.320;2023-04-03T03:09:15;102983.00;;;2.44
58102;BMP280;52034;51.926;6.320;2023-04-03T03:10:16;102971.44;;;2.40
58102;BMP280;52034;51.926;6.320;2023-04-03T03:11:17;102976.69;;;2.43
58102;BMP280;52034;51.926;6.320;2023-04-03T03:12:17;102982.53;;;2.40
58102;BMP280;52034;51.926;6.320;2023-04-03T03:13:21;102979.97;;;2.42
58102;BMP280;52034;51.926;6.320;2023-04-03T03:14:22;102978.69;;;2.43
58102;BMP280;52034;51.926;6.320;2023-04-03T03:15:23;102983.19;;;2.46
58102;BMP280;52034;51.926;6.320;2023-04-03T03:16:23;102975.72;;;2.41
58102;BMP280;52034;51.926;6.320;2023-04-03T03:17:23;102988.22;;;2.47
58102;BMP280;52034;51.926;6.320;2023-04-03T03:18:24;102991.97;;;2.50
58102;BMP280;52034;51.926;6.320;2023-04-03T03:19:25;102989.50;;;2.46
58102;BMP280;52034;51.926;6.320;2023-04-03T03:20:26;102990.78;;;2.45
58102;BMP280;52034;51.926;6.320;2023-04-03T03:21:26;102994.06;;;2.44
58102;BMP280;52034;51.926;6.320;2023-04-03T03:22:27;102984.03;;;2.41
58102;BMP280;52034;51.926;6.320;2023-04-03T03:23:29;102988.59;;;2.38
58102;BMP280;52034;51.926;6.320;2023-04-03T03:24:30;102997.69;;;2.39
58102;BMP280;52034;51.926;6.320;2023-04-03T03:25:31;102987.13;;;2.37
58102;BMP280;52034;51.926;6.320;2023-04-03T03:26:31;102985.91;;;2.33
58102;BMP280;52034;51.926;6.320;2023-04-03T03:27:31;102999.16;;;2.40
58102;BMP280;52034;51.926;6.320;2023-04-03T03:28:32;103000.69;;;2.41
58102;BMP280;52034;51.926;6.320;2023-04-03T03:29:32;102998.72;;;2.36
58102;BMP280;52034;51.926;6.320;2023-04-03T03:30:33;102986.25;;;2.29
58102;BMP280;52034;51.926;6.320;2023-04-03T03:31:33;102995.81;;;2.28
58102;BMP280;52034;51.926;6.320;2023-04-03T03:32:34;102996.06;;;2.30
58102;BMP280;52034;51.926;6.320;2023-04-03T03:33:36;102994.91;;;2.26
58102;BMP280;52034;51.926;6.320;2023-04-03T03:34:36;103006.19;;;2.28
58102;BMP280;52034;51.926;6.320;2023-04-03T03:35:36;102999.88;;;2.27
58102;BMP280;52034;51.926;6.320;2023-04-03T03:36:37;103007.03;;;2.23
58102;BMP280;52034;51.926;6.320;2023-04-03T03:37:37;103001.50;;;2.23
58102;BMP280;52034;51.926;6.320;2023-04-03T03:38:37;102992.75;;;2.19
58102;BMP280;52034;51.926;6.320;2023-04-03T03:39:38;102997.22;;;2.22
58102;BMP280;52034;51.926;6.320;2023-04-03T03:40:38;102991.91;;;2.24
58102;BMP280;52034;51.926;6.320;2023-04-03T03:41:39;103004.06;;;2.21
58102;BMP280;52034;51.926;6.320;2023-04-03T03:42:40;102999.56;;;2.18
58102;BMP280;52034;51.926;6.320;2023-04-03T03:43:40;102996.34;;;2.14
58102;BMP280;52034;51.926;6.320;2023-04-03T03:44:41;103002.34;;;2.18
58102;BMP280;52034;51.926;6.320;2023-04-03T03:45:42;103006.81;;;2.21
58102;BMP280;52034;51.926;6.320;2023-04-03T03:46:42;103009.47;;;2.13
58102;BMP280;52034;51.926;6.320;2023-04-03T03:47:43;102999.44;;;2.10
58102;BMP280;52034;51.926;6.320;2023-04-03T03:48:43;103000.91;;;2.11
58102;BMP280;52034;51.926;6.320;2023-04-03T03:49:43;103001.22;;;2.08
58102;BMP280;52034;51.926;6.320;2023-04-03T03:50:44;102998.47;;;2.08
58102;BMP280;52034;51.926;6.320;2023-04-03T03:51:44;103007.81;;;2.05
58102;BMP280;52034;51.926;6.320;2023-04-03T03:52:46;103002.81;;;2.03
58102;BMP280;52034;51.926;6.320;2023-04-03T03:53:46;103003.34;;;2.02
58102;BMP280;52034;51.926;6.320;2023-04-03T03:54:49;102998.84;;;1.99
58102;BMP280;52034;51.926;6.320;2023-04-03T03:55:50;102999.59;;;1.99
58102;BMP280;52034;51.926;6.320;2023-04-03T03:56:53;103006.19;;;1.96
58102;BMP280;52034;51.926;6.320;2023-04-03T03:57:53;103002.94;;;1.92
58102;BMP280;52034;51.926;6.320;2023-04-03T03:58:54;103013.97;;;1.98
58102;BMP280;52034;51.926;6.320;2023-04-03T03:59:56;103006.25;;;1.91
58102;BMP280;52034;51.926;6.320;2023-04-03T04:01:00;103005.81;;;1.87
58102;BMP280;52034;51.926;6.320;2023-04-03T04:02:01;103012.31;;;1.89
58102;BMP280;52034;51.926;6.320;2023-04-03T04:03:01;103008.28;;;1.90
58102;BMP280;52034;51.926;6.320;2023-04-03T04:04:03;103011.13;;;1.85
58102;BMP280;52034;51.926;6.320;2023-04-03T04:05:05;103015.59;;;1.88
58102;BMP280;52034;51.926;6.320;2023-04-03T04:06:06;103012.22;;;1.82
58102;BMP280;52034;51.926;6.320;2023-04-03T04:07:06;103007.03;;;1.73
58102;BMP280;52034;51.926;6.320;2023-04-03T04:08:08;103012.94;;;1.82
58102;BMP280;52034;51.926;6.320;2023-04-03T04:09:09;103017.81;;;1.76
58102;BMP280;52034;51.926;6.320;2023-04-03T04:10:09;103010.50;;;1.79
58102;BMP280;52034;51.926;6.320;2023-04-03T04:11:10;103010.50;;;1.79
58102;BMP280;52034;51.926;6.320;2023-04-03T04:12:11;103015.72;;;1.82
58102;BMP280;52034;51.926;6.320;2023-04-03T04:13:12;103012.63;;;1.86
58102;BMP280;52034;51.926;6.320;2023-04-03T04:14:13;103017.41;;;1.85
58102;BMP280;52034;51.926;6.320;2023-04-03T04:15:14;103017.22;;;1.83
58102;BMP280;52034;51.926;6.320;2023-04-03T04:16:15;103013.91;;;1.85
58102;BMP280;52034;51.926;6.320;2023-04-03T04:17:15;103017.00;;;1.81
58102;BMP280;52034;51.926;6.320;2023-04-03T04:18:16;103020.72;;;1.84
58102;BMP280;52034;51.926;6.320;2023-04-03T04:19:20;103021.91;;;1.88
58102;BMP280;52034;51.926;6.320;2023-04-03T04:20:20;103011.97;;;1.80
58102;BMP280;52034;51.926;6.320;2023-04-03T04:21:21;103009.97;;;1.80
58102;BMP280;52034;51.926;6.320;2023-04-03T04:22:24;103024.03;;;1.82
58102;BMP280;52034;51.926;6.320;2023-04-03T04:23:24;103021.56;;;1.79
58102;BMP280;52034;51.926;6.320;2023-04-03T04:24:25;103023.91;;;1.75
58102;BMP280;52034;51.926;6.320;2023-04-03T04:25:27;103023.59;;;1.78
58102;BMP280;52034;51.926;6.320;2023-04-03T04:26:28;103018.88;;;1.73
58102;BMP280;52034;51.926;6.320;2023-04-03T04:27:28;103019.25;;;1.64
58102;BMP280;52034;51.926;6.320;2023-04-03T04:28:29;103022.75;;;1.65
58102;BMP280;52034;51.926;6.320;2023-04-03T04:29:32;103014.06;;;1.55
58102;BMP280;52034;51.926;6.320;2023-04-03T04:30:35;103021.31;;;1.58
58102;BMP280;52034;51.926;6.320;2023-04-03T04:31:37;103010.09;;;1.51
58102;BMP280;52034;51.926;6.320;2023-04-03T04:32:37;103013.84;;;1.53
58102;BMP280;52034;51.926;6.320;2023-04-03T04:33:38;103014.34;;;1.52
58102;BMP280;52034;51.926;6.320;2023-04-03T04:34:39;103016.38;;;1.51
58102;BMP280;52034;51.926;6.320;2023-04-03T04:35:42;103023.34;;;1.58
58102;BMP280;52034;51.926;6.320;2023-04-03T04:36:43;103020.81;;;1.60
58102;BMP280;52034;51.926;6.320;2023-04-03T04:37:43;103011.53;;;1.57
58102;BMP280;52034;51.926;6.320;2023-04-03T04:38:45;103020.13;;;1.54
58102;BMP280;52034;51.926;6.320;2023-04-03T04:39:46;103011.06;;;1.53
58102;BMP280;52034;51.926;6.320;2023-04-03T04:40:47;103022.81;;;1.59
58102;BMP280;52034;51.926;6.320;2023-04-03T04:41:48;103023.56;;;1.60
58102;BMP280;52034;51.926;6.320;2023-04-03T04:42:48;103014.88;;;1.50
58102;BMP280;52034;51.926;6.320;2023-04-03T04:43:50;103015.19;;;1.47
58102;BMP280;52034;51.926;6.320;2023-04-03T04:44:50;103024.00;;;1.45
58102;BMP280;52034;51.926;6.320;2023-04-03T04:46:07;103020.47;;;1.45
58102;BMP280;52034;51.926;6.320;2023-04-03T04:47:13;103027.53;;;1.46
58102;BMP280;52034;51.926;6.320;2023-04-03T04:48:14;103023.50;;;1.47
58102;BMP280;52034;51.926;6.320;2023-04-03T04:49:15;103024.81;;;1.40
58102;BMP280;52034;51.926;6.320;2023-04-03T04:50:15;103032.31;;;1.45
58102;BMP280;52034;51.926;6.320;2023-04-03T04:51:16;103034.13;;;1.43
58102;BMP280;52034;51.926;6.320;2023-04-03T04:52:17;103034.13;;;1.43
58102;BMP280;52034;51.926;6.320;2023-04-03T04:53:17;103033.88;;;1.41
58102;BMP280;52034;51.926;6.320;2023-04-03T04:54:17;103029.69;;;1.34
58102;BMP280;52034;51.926;6.320;2023-04-03T04:55:20;103030.41;;;1.35
58102;BMP280;52034;51.926;6.320;2023-04-03T04:56:20;103033.63;;;1.39
58102;BMP280;52034;51.926;6.320;2023-04-03T04:57:22;103038.00;;;1.34
58102;BMP280;52034;51.926;6.320;2023-04-03T04:58:22;103041.28;;;1.33
58102;BMP280;52034;51.926;6.320;2023-04-03T04:59:24;103038.97;;;1.37
58102;BMP280;52034;51.926;6.320;2023-04-03T05:00:26;103042.47;;;1.37
58102;BMP280;52034;51.926;6.320;2023-04-03T05:01:26;103036.72;;;1.35
58102;BMP280;52034;51.926;6.320;2023-04-03T05:02:34;103040.91;;;1.42
58102;BMP280;52034;51.926;6.320;2023-04-03T05:03:34;103041.66;;;1.42
58102;BMP280;52034;51.926;6.320;2023-04-03T05:04:35;103035.84;;;1.46
58102;BMP280;52034;51.926;6.320;2023-04-03T05:05:41;103035.84;;;1.46
58102;BMP280;52034;51.926;6.320;2023-04-03T05:06:41;103040.84;;;1.47
58102;BMP280;52034;51.926;6.320;2023-04-03T05:07:47;103041.59;;;1.48
58102;BMP280;52034;51.926;6.320;2023-04-03T05:08:48;103040.34;;;1.49
58102;BMP280;52034;51.926;6.320;2023-04-03T05:09:48;103035.66;;;1.38
58102;BMP280;52034;51.926;6.320;2023-04-03T05:10:50;103050.94;;;1.45
58102;BMP280;52034;51.926;6.320;2023-04-03T05:11:51;103039.94;;;1.39
58102;BMP280;52034;51.926;6.320;2023-04-03T05:12:55;103037.16;;;1.39
58102;BMP280;52034;51.926;6.320;2023-04-03T05:13:55;103031.19;;;1.35
58102;BMP280;52034;51.926;6.320;2023-04-03T05:14:57;103053.69;;;1.45
58102;BMP280;52034;51.926;6.320;2023-04-03T05:15:59;103054.28;;;1.38
58102;BMP280;52034;51.926;6.320;2023-04-03T05:17:00;103048.75;;;1.38
58102;BMP280;52034;51.926;6.320;2023-04-03T05:18:03;103050.78;;;1.37
58102;BMP280;52034;51.926;6.320;2023-04-03T05:19:04;103052.03;;;1.36
58102;BMP280;52034;51.926;6.320;2023-04-03T05:20:05;103051.00;;;1.39
58102;BMP280;52034;51.926;6.320;2023-04-03T05:21:05;103053.78;;;1.39
58102;BMP280;52034;51.926;6.320;2023-04-03T05:22:06;103048.31;;;1.34
58102;BMP280;52034;51.926;6.320;2023-04-03T05:23:06;103065.59;;;1.40
58102;BMP280;52034;51.926;6.320;2023-04-03T05:24:09;103068.53;;;1.47
58102;BMP280;52034;51.926;6.320;2023-04-03T05:25:12;103062.00;;;1.45
58102;BMP280;52034;51.926;6.320;2023-04-03T05:26:15;103062.25;;;1.47
58102;BMP280;52034;51.926;6.320;2023-04-03T05:27:17;103071.97;;;1.53
58102;BMP280;52034;51.926;6.320;2023-04-03T05:28:21;103070.25;;;1.50
58102;BMP280;52034;51.926;6.320;2023-04-03T05:29:22;103067.44;;;1.56
58102;BMP280;52034;51.926;6.320;2023-04-03T05:30:23;103061.66;;;1.54
58102;BMP280;52034;51.926;6.320;2023-04-03T05:31:23;103068.91;;;1.57
58102;BMP280;52034;51.926;6.320;2023-04-03T05:32:25;103063.91;;;1.55
58102;BMP280;52034;51.926;6.320;2023-04-03T05:33:36;103060.09;;;1.58
58102;BMP280;52034;51.926;6.320;2023-04-03T05:34:39;103065.88;;;1.60
58102;BMP280;52034;51.926;6.320;2023-04-03T05:35:39;103067.28;;;1.67
58102;BMP280;52034;51.926;6.320;2023-04-03T05:36:42;103064.81;;;1.63
58102;BMP280;52034;51.926;6.320;2023-04-03T05:37:43;103057.50;;;1.66
58102;BMP280;52034;51.926;6.320;2023-04-03T05:38:44;103061.31;;;1.63
58102;BMP280;52034;51.926;6.320;2023-04-03T05:39:45;103067.81;;;1.65
58102;BMP280;52034;51.926;6.320;2023-04-03T05:40:45;103065.78;;;1.66
58102;BMP280;52034;51.926;6.320;2023-04-03T05:41:46;103069.09;;;1.64
58102;BMP280;52034;51.926;6.320;2023-04-03T05:42:46;103070.56;;;1.65
58102;BMP280;52034;51.926;6.320;2023-04-03T05:43:48;103066.53;;;1.66
58102;BMP280;52034;51.926;6.320;2023-04-03T05:44:48;103063.56;;;1.64
58102;BMP280;52034;51.926;6.320;2023-04-03T05:45:50;103071.78;;;1.70
58102;BMP280;52034;51.926;6.320;2023-04-03T05:46:51;103064.81;;;1.63
58102;BMP280;52034;51.926;6.320;2023-04-03T05:47:51;103076.88;;;1.66
58102;BMP280;52034;51.926;6.320;2023-04-03T05:48:51;103076.88;;;1.66
58102;BMP280;52034;51.926;6.320;2023-04-03T05:49:55;103076.63;;;1.64
58102;BMP280;52034;51.926;6.320;2023-04-03T05:50:55;103075.59;;;1.67
58102;BMP280;52034;51.926;6.320;2023-04-03T05:51:59;103083.66;;;1.65
58102;BMP280;52034;51.926;6.320;2023-04-03T05:53:03;103080.53;;;1.74
58102;BMP280;52034;51.926;6.320;2023-04-03T05:54:12;103084.34;;;1.71
58102;BMP280;52034;51.926;6.320;2023-04-03T05:55:14;103087.34;;;1.73
58102;BMP280;52034;51.926;6.320;2023-04-03T05:56:14;103089.53;;;1.80